»·PEaware :: N618DH KAVX-KSAN

N618DH :: KAVX-KSAN

FLIGHT INFORMATION

Flight Status: Arrived
Operator: Privately registered:
United States
More flights under this callsign
Pilot: Anonymous 18412 (18412)
Aircraft: CESSNA 172 SKYHAWK
(C172)
More flights by this aircraft type
Origin: KAVX Catalina
United States
Destination: KSAN San Diego Intl-Lindbergh
United States
More flights between these airports :: More routes between these airports
Route: SXC V208 OCN V23 MZB
File this flight plan on PilotEdge
Remarks: I-8 / LOC RWY 27 SAN
Altitude:
(Current/Filed)
5,000ft
Speed:
(Current/Filed)
100kts
Departed: 21-Jan-20 06:20 PM
Arrived: 21-Jan-20 07:18 PM
Distance/Time
Traveled:
74nm/0:57
Distance/Time
To Go:
Arrived

Flight Plot

Page will automatically refresh every two minutes.


Map Options




Map Legend


Flown Route
Filed Route
Departure Airport
Arrival Airport
Navaid (VOR, NDB)
Fix

Horizontal Profiles

Position Reports

Time Latitude Longitude Heading Altitude Ground
Speed
21-Jan-20 18:09 33.403564 -118.415349 269 1547ft 12kts
21-Jan-20 18:10 33.403354 -118.417897 240 1558ft 0kts
21-Jan-20 18:11 33.406185 -118.413083 54 1519ft 23kts
21-Jan-20 18:12 33.407158 -118.411417 50 1499ft 0kts
21-Jan-20 18:13 33.407158 -118.411417 50 1499ft 0kts
21-Jan-20 18:14 33.407158 -118.411417 50 1499ft 0kts
21-Jan-20 18:15 33.407158 -118.411417 50 1499ft 0kts
21-Jan-20 18:16 33.407158 -118.411417 50 1499ft 0kts
21-Jan-20 18:17 33.407158 -118.411417 50 1499ft 0kts
21-Jan-20 18:18 33.407158 -118.411417 50 1499ft 0kts
21-Jan-20 18:19 33.407165 -118.411410 35 1499ft 0kts
21-Jan-20 18:20 33.400601 -118.421490 228 1902ft 71kts
21-Jan-20 18:21 33.388034 -118.437820 238 2981ft 65kts
21-Jan-20 18:21 33.376457 -118.450419 215 3724ft 70kts
21-Jan-20 18:23 33.365611 -118.440448 69 4698ft 88kts
21-Jan-20 18:24 33.372807 -118.410520 97 5146ft 121kts
21-Jan-20 18:24 33.369274 -118.375764 99 5002ft 124kts
21-Jan-20 18:25 33.364530 -118.332511 95 4971ft 137kts
21-Jan-20 18:27 33.357729 -118.280374 101 4993ft 137kts
21-Jan-20 18:28 33.352075 -118.235557 98 5030ft 136kts
21-Jan-20 18:28 33.347328 -118.197762 100 4988ft 138kts
21-Jan-20 18:29 33.340900 -118.153036 99 5029ft 134kts
21-Jan-20 18:30 33.334732 -118.107563 100 5031ft 139kts
21-Jan-20 18:31 33.328888 -118.061272 101 5021ft 142kts
21-Jan-20 18:32 33.322992 -118.014758 102 4980ft 141kts
21-Jan-20 18:33 33.314974 -117.968623 102 4981ft 141kts
21-Jan-20 18:34 33.306826 -117.922571 102 4981ft 141kts
21-Jan-20 18:35 33.301641 -117.875857 94 4982ft 141kts
21-Jan-20 18:36 33.296620 -117.829237 98 4982ft 141kts
21-Jan-20 18:37 33.290584 -117.782593 99 4982ft 141kts
21-Jan-20 18:39 33.283034 -117.728525 97 4990ft 142kts
21-Jan-20 18:39 33.277140 -117.689577 98 4992ft 143kts
21-Jan-20 18:40 33.270100 -117.642770 98 4992ft 143kts
21-Jan-20 18:41 33.262977 -117.595937 98 4992ft 143kts
21-Jan-20 18:42 33.256723 -117.548802 96 4981ft 143kts
21-Jan-20 18:43 33.251001 -117.501700 96 4979ft 143kts
21-Jan-20 18:44 33.245400 -117.455594 93 4977ft 135kts
21-Jan-20 18:45 33.235883 -117.413666 149 4972ft 130kts
21-Jan-20 18:46 33.201055 -117.400176 165 4976ft 137kts
21-Jan-20 18:47 33.164458 -117.385523 162 4975ft 140kts
21-Jan-20 18:48 33.127683 -117.370109 160 4974ft 140kts
21-Jan-20 18:49 33.090873 -117.354625 160 4974ft 140kts
21-Jan-20 18:50 33.054115 -117.339186 161 4973ft 140kts
21-Jan-20 18:51 33.017310 -117.323740 161 4973ft 140kts
21-Jan-20 18:52 32.980640 -117.308318 161 4973ft 140kts
21-Jan-20 18:53 32.944052 -117.292250 160 4973ft 140kts
21-Jan-20 18:54 32.907773 -117.275375 160 4975ft 140kts
21-Jan-20 18:55 32.871762 -117.257113 157 4976ft 140kts
21-Jan-20 18:56 32.834300 -117.246527 166 4978ft 140kts
21-Jan-20 18:57 32.797716 -117.231653 165 5011ft 126kts
21-Jan-20 18:58 32.780312 -117.212447 101 5062ft 81kts
21-Jan-20 18:59 32.773834 -117.177722 94 5067ft 113kts
21-Jan-20 19:00 32.766630 -117.141014 104 5204ft 116kts
21-Jan-20 19:01 32.758083 -117.099995 102 5110ft 136kts
21-Jan-20 19:02 32.749042 -117.056936 102 5098ft 132kts
21-Jan-20 19:03 32.739487 -117.014551 103 5087ft 132kts
21-Jan-20 19:04 32.729664 -116.972384 105 5100ft 130kts
21-Jan-20 19:05 32.721834 -116.930237 101 5099ft 132kts
21-Jan-20 19:06 32.708667 -116.889901 142 4956ft 134kts
21-Jan-20 19:07 32.676961 -116.887136 218 4119ft 91kts
21-Jan-20 19:08 32.668549 -116.913513 259 4167ft 90kts
21-Jan-20 19:09 32.673529 -116.942130 287 4069ft 101kts
21-Jan-20 19:10 32.681407 -116.975520 284 3750ft 103kts
21-Jan-20 19:11 32.689773 -117.009101 287 3168ft 108kts
21-Jan-20 19:12 32.697804 -117.041900 280 2731ft 103kts
21-Jan-20 19:13 32.705748 -117.075781 277 2129ft 96kts
21-Jan-20 19:14 32.713847 -117.107999 283 1670ft 103kts
21-Jan-20 19:15 32.721253 -117.138466 282 936ft 90kts
21-Jan-20 19:16 32.727987 -117.167519 287 748ft 80kts
21-Jan-20 19:17 32.732422 -117.184187 317 15ft 12kts
21-Jan-20 19:18 32.733307 -117.183678 110 17ft 15kts

Navigation Log

Ident Type
Flight plan parsing failed, navigation log unavailable